sensor_id;sensor_type;location;lat;lon;timestamp;P1;durP1;ratioP1;P2;durP2;ratioP2
71046;SDS011;58703;48.978;8.982;2023-07-08T00:00:15;9.80;;;4.97;;
71046;SDS011;58703;48.978;8.982;2023-07-08T00:02:43;8.35;;;4.60;;
71046;SDS011;58703;48.978;8.982;2023-07-08T00:05:13;6.63;;;4.37;;
71046;SDS011;58703;48.978;8.982;2023-07-08T00:07:40;6.65;;;4.30;;
71046;SDS011;58703;48.978;8.982;2023-07-08T00:10:20;7.57;;;4.43;;
71046;SDS011;58703;48.978;8.982;2023-07-08T00:12:47;8.48;;;3.95;;
71046;SDS011;58703;48.978;8.982;2023-07-08T00:15:16;11.82;;;4.50;;
71046;SDS011;58703;48.978;8.982;2023-07-08T00:17:42;8.53;;;4.33;;
71046;SDS011;58703;48.978;8.982;2023-07-08T00:20:19;7.22;;;4.57;;
71046;SDS011;58703;48.978;8.982;2023-07-08T00:22:49;8.05;;;4.40;;
71046;SDS011;58703;48.978;8.982;2023-07-08T00:25:18;8.27;;;4.53;;
71046;SDS011;58703;48.978;8.982;2023-07-08T00:27:46;9.68;;;5.10;;
71046;SDS011;58703;48.978;8.982;2023-07-08T00:32:51;7.22;;;4.03;;
71046;SDS011;58703;48.978;8.982;2023-07-08T00:35:21;8.35;;;4.50;;
71046;SDS011;58703;48.978;8.982;2023-07-08T00:38:01;7.85;;;4.55;;
71046;SDS011;58703;48.978;8.982;2023-07-08T00:40:38;9.05;;;4.75;;
71046;SDS011;58703;48.978;8.982;2023-07-08T00:43:15;9.07;;;4.43;;
71046;SDS011;58703;48.978;8.982;2023-07-08T00:45:43;7.93;;;4.32;;
71046;SDS011;58703;48.978;8.982;2023-07-08T00:48:32;9.60;;;4.60;;
71046;SDS011;58703;48.978;8.982;2023-07-08T00:50:59;11.30;;;5.35;;
71046;SDS011;58703;48.978;8.982;2023-07-08T00:55:57;7.27;;;4.37;;
71046;SDS011;58703;48.978;8.982;2023-07-08T00:58:29;10.43;;;5.10;;
71046;SDS011;58703;48.978;8.982;2023-07-08T01:00:58;9.52;;;4.60;;
71046;SDS011;58703;48.978;8.982;2023-07-08T01:03:27;9.60;;;4.72;;
71046;SDS011;58703;48.978;8.982;2023-07-08T01:05:55;7.15;;;4.47;;
71046;SDS011;58703;48.978;8.982;2023-07-08T01:08:27;10.03;;;5.00;;
71046;SDS011;58703;48.978;8.982;2023-07-08T01:10:57;11.35;;;4.28;;
71046;SDS011;58703;48.978;8.982;2023-07-08T01:13:32;8.73;;;5.22;;
71046;SDS011;58703;48.978;8.982;2023-07-08T01:16:01;7.47;;;4.60;;
71046;SDS011;58703;48.978;8.982;2023-07-08T01:18:28;8.75;;;4.88;;
71046;SDS011;58703;48.978;8.982;2023-07-08T01:20:53;7.13;;;4.33;;
71046;SDS011;58703;48.978;8.982;2023-07-08T01:23:20;8.30;;;4.50;;
71046;SDS011;58703;48.978;8.982;2023-07-08T01:25:47;9.40;;;4.78;;
71046;SDS011;58703;48.978;8.982;2023-07-08T01:28:15;8.83;;;4.50;;
71046;SDS011;58703;48.978;8.982;2023-07-08T01:30:41;9.27;;;5.13;;
71046;SDS011;58703;48.978;8.982;2023-07-08T01:33:12;9.65;;;4.65;;
71046;SDS011;58703;48.978;8.982;2023-07-08T01:35:41;7.05;;;4.25;;
71046;SDS011;58703;48.978;8.982;2023-07-08T01:38:08;7.90;;;4.60;;
71046;SDS011;58703;48.978;8.982;2023-07-08T01:40:37;8.52;;;4.78;;
71046;SDS011;58703;48.978;8.982;2023-07-08T01:43:12;7.82;;;4.30;;
71046;SDS011;58703;48.978;8.982;2023-07-08T01:45:39;8.70;;;4.47;;
71046;SDS011;58703;48.978;8.982;2023-07-08T01:48:08;8.38;;;4.90;;
71046;SDS011;58703;48.978;8.982;2023-07-08T01:50:37;7.85;;;4.78;;
71046;SDS011;58703;48.978;8.982;2023-07-08T01:53:08;8.43;;;4.50;;
71046;SDS011;58703;48.978;8.982;2023-07-08T01:55:41;7.47;;;4.53;;
71046;SDS011;58703;48.978;8.982;2023-07-08T01:58:06;7.35;;;4.53;;
71046;SDS011;58703;48.978;8.982;2023-07-08T02:00:33;7.30;;;4.43;;
71046;SDS011;58703;48.978;8.982;2023-07-08T02:02:59;8.23;;;4.38;;
71046;SDS011;58703;48.978;8.982;2023-07-08T02:05:26;7.80;;;4.03;;
71046;SDS011;58703;48.978;8.982;2023-07-08T02:07:51;8.18;;;4.90;;
71046;SDS011;58703;48.978;8.982;2023-07-08T02:10:17;7.63;;;4.80;;
71046;SDS011;58703;48.978;8.982;2023-07-08T02:12:42;8.10;;;4.57;;
71046;SDS011;58703;48.978;8.982;2023-07-08T02:15:08;10.15;;;4.50;;
71046;SDS011;58703;48.978;8.982;2023-07-08T02:17:35;9.07;;;4.80;;
71046;SDS011;58703;48.978;8.982;2023-07-08T02:20:01;10.20;;;4.50;;
71046;SDS011;58703;48.978;8.982;2023-07-08T02:22:27;10.73;;;4.75;;
71046;SDS011;58703;48.978;8.982;2023-07-08T02:24:53;7.30;;;4.33;;
71046;SDS011;58703;48.978;8.982;2023-07-08T02:27:18;8.13;;;4.50;;
71046;SDS011;58703;48.978;8.982;2023-07-08T02:29:44;8.77;;;4.20;;
71046;SDS011;58703;48.978;8.982;2023-07-08T02:32:11;8.40;;;4.73;;
71046;SDS011;58703;48.978;8.982;2023-07-08T02:34:36;7.83;;;4.57;;
71046;SDS011;58703;48.978;8.982;2023-07-08T02:37:02;8.00;;;4.85;;
71046;SDS011;58703;48.978;8.982;2023-07-08T02:39:29;7.18;;;4.28;;
71046;SDS011;58703;48.978;8.982;2023-07-08T02:41:54;8.07;;;4.40;;
71046;SDS011;58703;48.978;8.982;2023-07-08T02:44:20;7.77;;;4.50;;
71046;SDS011;58703;48.978;8.982;2023-07-08T02:46:45;7.03;;;4.32;;
71046;SDS011;58703;48.978;8.982;2023-07-08T02:49:12;6.63;;;4.47;;
71046;SDS011;58703;48.978;8.982;2023-07-08T02:51:38;8.38;;;4.88;;
71046;SDS011;58703;48.978;8.982;2023-07-08T02:54:03;7.80;;;5.13;;
71046;SDS011;58703;48.978;8.982;2023-07-08T02:56:30;9.07;;;5.07;;
71046;SDS011;58703;48.978;8.982;2023-07-08T02:58:55;10.38;;;5.00;;
71046;SDS011;58703;48.978;8.982;2023-07-08T03:01:21;8.73;;;4.40;;
71046;SDS011;58703;48.978;8.982;2023-07-08T03:03:50;8.20;;;4.95;;
71046;SDS011;58703;48.978;8.982;2023-07-08T03:06:16;11.88;;;5.28;;
71046;SDS011;58703;48.978;8.982;2023-07-08T03:08:43;7.88;;;5.18;;
71046;SDS011;58703;48.978;8.982;2023-07-08T03:11:09;10.85;;;5.20;;
71046;SDS011;58703;48.978;8.982;2023-07-08T03:13:35;8.57;;;5.07;;
71046;SDS011;58703;48.978;8.982;2023-07-08T03:16:01;8.82;;;4.65;;
71046;SDS011;58703;48.978;8.982;2023-07-08T03:18:28;8.60;;;4.20;;
71046;SDS011;58703;48.978;8.982;2023-07-08T03:20:55;7.03;;;4.40;;
71046;SDS011;58703;48.978;8.982;2023-07-08T03:23:22;7.60;;;4.60;;
71046;SDS011;58703;48.978;8.982;2023-07-08T03:25:49;8.52;;;4.93;;
71046;SDS011;58703;48.978;8.982;2023-07-08T03:28:14;7.00;;;4.35;;
71046;SDS011;58703;48.978;8.982;2023-07-08T03:30:40;8.13;;;4.63;;
71046;SDS011;58703;48.978;8.982;2023-07-08T03:33:07;8.95;;;4.72;;
71046;SDS011;58703;48.978;8.982;2023-07-08T03:35:34;9.07;;;4.63;;
71046;SDS011;58703;48.978;8.982;2023-07-08T03:38:00;7.73;;;4.00;;
71046;SDS011;58703;48.978;8.982;2023-07-08T03:40:27;12.52;;;4.88;;
71046;SDS011;58703;48.978;8.982;2023-07-08T03:42:53;7.88;;;4.80;;
71046;SDS011;58703;48.978;8.982;2023-07-08T03:45:18;8.17;;;4.83;;
71046;SDS011;58703;48.978;8.982;2023-07-08T03:47:44;11.85;;;4.90;;
71046;SDS011;58703;48.978;8.982;2023-07-08T03:50:16;8.50;;;4.40;;
71046;SDS011;58703;48.978;8.982;2023-07-08T03:52:46;6.57;;;4.68;;
71046;SDS011;58703;48.978;8.982;2023-07-08T03:55:12;9.35;;;4.78;;
71046;SDS011;58703;48.978;8.982;2023-07-08T03:57:38;9.20;;;4.60;;
71046;SDS011;58703;48.978;8.982;2023-07-08T04:00:04;7.00;;;4.45;;
71046;SDS011;58703;48.978;8.982;2023-07-08T04:02:33;8.05;;;5.10;;
71046;SDS011;58703;48.978;8.982;2023-07-08T04:05:01;8.87;;;4.97;;
71046;SDS011;58703;48.978;8.982;2023-07-08T04:07:28;7.45;;;4.90;;
71046;SDS011;58703;48.978;8.982;2023-07-08T04:09:53;7.87;;;4.77;;
71046;SDS011;58703;48.978;8.982;2023-07-08T04:12:19;8.65;;;4.47;;
71046;SDS011;58703;48.978;8.982;2023-07-08T04:14:44;7.80;;;5.03;;
71046;SDS011;58703;48.978;8.982;2023-07-08T04:17:10;9.70;;;5.07;;
71046;SDS011;58703;48.978;8.982;2023-07-08T04:19:37;9.23;;;4.72;;
71046;SDS011;58703;48.978;8.982;2023-07-08T04:22:04;7.35;;;4.53;;
71046;SDS011;58703;48.978;8.982;2023-07-08T04:24:32;9.23;;;5.22;;
71046;SDS011;58703;48.978;8.982;2023-07-08T04:26:57;7.68;;;5.10;;
71046;SDS011;58703;48.978;8.982;2023-07-08T04:29:23;8.00;;;5.13;;
71046;SDS011;58703;48.978;8.982;2023-07-08T04:31:49;8.15;;;5.28;;
71046;SDS011;58703;48.978;8.982;2023-07-08T04:34:16;10.30;;;4.95;;
71046;SDS011;58703;48.978;8.982;2023-07-08T04:36:43;7.68;;;5.28;;
71046;SDS011;58703;48.978;8.982;2023-07-08T04:39:11;8.43;;;5.20;;
71046;SDS011;58703;48.978;8.982;2023-07-08T04:41:39;8.63;;;5.40;;
71046;SDS011;58703;48.978;8.982;2023-07-08T04:44:07;8.02;;;5.10;;
71046;SDS011;58703;48.978;8.982;2023-07-08T04:46:37;10.82;;;5.57;;
71046;SDS011;58703;48.978;8.982;2023-07-08T04:49:07;8.25;;;5.22;;
71046;SDS011;58703;48.978;8.982;2023-07-08T04:51:39;8.73;;;5.57;;
71046;SDS011;58703;48.978;8.982;2023-07-08T04:54:07;9.30;;;5.07;;
71046;SDS011;58703;48.978;8.982;2023-07-08T04:56:39;8.20;;;5.13;;
71046;SDS011;58703;48.978;8.982;2023-07-08T04:59:08;12.80;;;5.15;;
71046;SDS011;58703;48.978;8.982;2023-07-08T05:01:37;7.45;;;5.07;;
71046;SDS011;58703;48.978;8.982;2023-07-08T05:04:04;7.17;;;4.37;;
71046;SDS011;58703;48.978;8.982;2023-07-08T05:06:32;8.10;;;4.65;;
71046;SDS011;58703;48.978;8.982;2023-07-08T05:09:00;8.38;;;5.28;;
71046;SDS011;58703;48.978;8.982;2023-07-08T05:11:29;6.85;;;4.53;;
71046;SDS011;58703;48.978;8.982;2023-07-08T05:13:56;9.55;;;5.38;;
71046;SDS011;58703;48.978;8.982;2023-07-08T05:16:24;8.07;;;4.53;;
71046;SDS011;58703;48.978;8.982;2023-07-08T05:18:51;11.10;;;4.68;;
71046;SDS011;58703;48.978;8.982;2023-07-08T05:21:18;8.18;;;5.13;;
71046;SDS011;58703;48.978;8.982;2023-07-08T05:23:44;8.98;;;5.30;;
71046;SDS011;58703;48.978;8.982;2023-07-08T05:26:11;8.25;;;5.38;;
71046;SDS011;58703;48.978;8.982;2023-07-08T05:28:38;9.90;;;5.17;;
71046;SDS011;58703;48.978;8.982;2023-07-08T05:31:05;7.60;;;5.30;;
71046;SDS011;58703;48.978;8.982;2023-07-08T05:33:32;7.80;;;4.90;;
71046;SDS011;58703;48.978;8.982;2023-07-08T05:35:57;6.40;;;4.72;;
71046;SDS011;58703;48.978;8.982;2023-07-08T05:38:25;9.73;;;5.13;;
71046;SDS011;58703;48.978;8.982;2023-07-08T05:40:57;8.50;;;5.03;;
71046;SDS011;58703;48.978;8.982;2023-07-08T05:43:25;7.78;;;4.90;;
71046;SDS011;58703;48.978;8.982;2023-07-08T05:45:57;9.73;;;5.28;;
71046;SDS011;58703;48.978;8.982;2023-07-08T05:48:24;8.07;;;5.20;;
71046;SDS011;58703;48.978;8.982;2023-07-08T05:50:49;8.13;;;5.50;;
71046;SDS011;58703;48.978;8.982;2023-07-08T05:53:17;7.93;;;5.50;;
71046;SDS011;58703;48.978;8.982;2023-07-08T05:55:44;7.45;;;4.70;;
71046;SDS011;58703;48.978;8.982;2023-07-08T05:58:11;6.97;;;4.55;;
71046;SDS011;58703;48.978;8.982;2023-07-08T06:00:40;7.45;;;5.13;;
71046;SDS011;58703;48.978;8.982;2023-07-08T06:03:07;11.10;;;4.60;;
71046;SDS011;58703;48.978;8.982;2023-07-08T06:05:34;9.65;;;5.72;;
71046;SDS011;58703;48.978;8.982;2023-07-08T06:08:01;8.43;;;4.88;;
71046;SDS011;58703;48.978;8.982;2023-07-08T06:10:26;9.43;;;5.27;;
71046;SDS011;58703;48.978;8.982;2023-07-08T06:12:52;8.95;;;5.63;;
71046;SDS011;58703;48.978;8.982;2023-07-08T06:15:18;12.73;;;5.53;;
71046;SDS011;58703;48.978;8.982;2023-07-08T06:17:44;9.90;;;5.10;;
71046;SDS011;58703;48.978;8.982;2023-07-08T06:20:09;7.97;;;5.60;;
71046;SDS011;58703;48.978;8.982;2023-07-08T06:22:35;9.10;;;5.35;;
71046;SDS011;58703;48.978;8.982;2023-07-08T06:25:01;9.90;;;4.93;;
71046;SDS011;58703;48.978;8.982;2023-07-08T06:27:26;7.30;;;4.87;;
71046;SDS011;58703;48.978;8.982;2023-07-08T06:29:54;6.93;;;4.72;;
71046;SDS011;58703;48.978;8.982;2023-07-08T06:32:19;8.68;;;5.75;;
71046;SDS011;58703;48.978;8.982;2023-07-08T06:34:45;7.90;;;5.27;;
71046;SDS011;58703;48.978;8.982;2023-07-08T06:37:10;7.80;;;5.73;;
71046;SDS011;58703;48.978;8.982;2023-07-08T06:39:36;8.75;;;5.35;;
71046;SDS011;58703;48.978;8.982;2023-07-08T06:42:02;8.20;;;4.27;;
71046;SDS011;58703;48.978;8.982;2023-07-08T06:44:27;6.97;;;5.35;;
71046;SDS011;58703;48.978;8.982;2023-07-08T06:46:54;7.50;;;5.30;;
71046;SDS011;58703;48.978;8.982;2023-07-08T06:49:19;6.57;;;5.28;;
71046;SDS011;58703;48.978;8.982;2023-07-08T06:51:45;6.77;;;5.17;;
71046;SDS011;58703;48.978;8.982;2023-07-08T06:54:11;8.73;;;5.50;;
71046;SDS011;58703;48.978;8.982;2023-07-08T06:56:37;8.33;;;5.27;;
71046;SDS011;58703;48.978;8.982;2023-07-08T06:59:04;7.47;;;5.35;;
71046;SDS011;58703;48.978;8.982;2023-07-08T07:01:31;10.32;;;5.43;;
71046;SDS011;58703;48.978;8.982;2023-07-08T07:03:58;7.82;;;5.40;;
71046;SDS011;58703;48.978;8.982;2023-07-08T07:06:26;6.70;;;5.43;;
71046;SDS011;58703;48.978;8.982;2023-07-08T07:08:52;8.77;;;5.37;;
71046;SDS011;58703;48.978;8.982;2023-07-08T07:11:17;8.32;;;5.22;;
71046;SDS011;58703;48.978;8.982;2023-07-08T07:13:45;9.97;;;5.17;;
71046;SDS011;58703;48.978;8.982;2023-07-08T07:16:10;7.65;;;5.18;;
71046;SDS011;58703;48.978;8.982;2023-07-08T07:18:37;8.68;;;5.00;;
71046;SDS011;58703;48.978;8.982;2023-07-08T07:21:03;8.10;;;4.80;;
71046;SDS011;58703;48.978;8.982;2023-07-08T07:23:29;10.17;;;5.50;;
71046;SDS011;58703;48.978;8.982;2023-07-08T07:25:55;8.45;;;4.50;;
71046;SDS011;58703;48.978;8.982;2023-07-08T07:28:20;7.70;;;5.00;;
71046;SDS011;58703;48.978;8.982;2023-07-08T07:30:46;6.72;;;4.47;;
71046;SDS011;58703;48.978;8.982;2023-07-08T07:33:13;9.63;;;4.27;;
71046;SDS011;58703;48.978;8.982;2023-07-08T07:35:45;8.48;;;5.25;;
71046;SDS011;58703;48.978;8.982;2023-07-08T07:38:13;8.38;;;4.07;;
71046;SDS011;58703;48.978;8.982;2023-07-08T07:40:40;8.27;;;4.30;;
71046;SDS011;58703;48.978;8.982;2023-07-08T07:43:06;6.83;;;4.60;;
71046;SDS011;58703;48.978;8.982;2023-07-08T07:45:32;8.40;;;5.00;;
71046;SDS011;58703;48.978;8.982;2023-07-08T07:47:59;6.60;;;4.27;;
71046;SDS011;58703;48.978;8.982;2023-07-08T07:50:26;8.45;;;4.75;;
71046;SDS011;58703;48.978;8.982;2023-07-08T07:52:52;8.27;;;4.35;;
71046;SDS011;58703;48.978;8.982;2023-07-08T07:55:17;8.90;;;4.67;;
71046;SDS011;58703;48.978;8.982;2023-07-08T07:57:43;9.38;;;4.97;;
71046;SDS011;58703;48.978;8.982;2023-07-08T08:00:11;6.70;;;4.32;;
71046;SDS011;58703;48.978;8.982;2023-07-08T08:02:37;10.10;;;4.80;;
71046;SDS011;58703;48.978;8.982;2023-07-08T08:05:04;14.47;;;4.67;;
71046;SDS011;58703;48.978;8.982;2023-07-08T08:07:30;6.00;;;4.60;;
71046;SDS011;58703;48.978;8.982;2023-07-08T08:09:57;7.20;;;4.67;;
71046;SDS011;58703;48.978;8.982;2023-07-08T08:12:23;7.03;;;3.83;;
71046;SDS011;58703;48.978;8.982;2023-07-08T08:14:50;7.68;;;4.70;;
71046;SDS011;58703;48.978;8.982;2023-07-08T08:17:16;6.53;;;4.47;;
71046;SDS011;58703;48.978;8.982;2023-07-08T08:19:41;7.93;;;3.93;;
71046;SDS011;58703;48.978;8.982;2023-07-08T08:22:08;8.67;;;4.43;;
71046;SDS011;58703;48.978;8.982;2023-07-08T08:24:34;7.40;;;4.55;;
71046;SDS011;58703;48.978;8.982;2023-07-08T08:26:59;5.88;;;4.43;;
71046;SDS011;58703;48.978;8.982;2023-07-08T08:29:25;11.17;;;4.97;;
71046;SDS011;58703;48.978;8.982;2023-07-08T08:31:50;5.57;;;4.57;;
71046;SDS011;58703;48.978;8.982;2023-07-08T08:34:16;8.95;;;4.60;;
71046;SDS011;58703;48.978;8.982;2023-07-08T08:36:42;6.67;;;4.73;;
71046;SDS011;58703;48.978;8.982;2023-07-08T08:39:09;6.75;;;4.80;;
71046;SDS011;58703;48.978;8.982;2023-07-08T08:41:36;6.30;;;4.28;;
71046;SDS011;58703;48.978;8.982;2023-07-08T08:44:04;8.93;;;4.27;;
71046;SDS011;58703;48.978;8.982;2023-07-08T08:46:34;8.82;;;4.40;;
71046;SDS011;58703;48.978;8.982;2023-07-08T08:51:43;8.32;;;4.30;;
71046;SDS011;58703;48.978;8.982;2023-07-08T08:54:10;7.47;;;4.50;;
71046;SDS011;58703;48.978;8.982;2023-07-08T09:04:55;6.43;;;4.03;;
71046;SDS011;58703;48.978;8.982;2023-07-08T09:07:27;7.15;;;3.78;;
71046;SDS011;58703;48.978;8.982;2023-07-08T09:10:03;7.63;;;4.27;;
71046;SDS011;58703;48.978;8.982;2023-07-08T09:12:34;6.47;;;4.05;;
71046;SDS011;58703;48.978;8.982;2023-07-08T09:15:00;6.15;;;3.92;;
71046;SDS011;58703;48.978;8.982;2023-07-08T09:17:36;6.15;;;3.80;;
71046;SDS011;58703;48.978;8.982;2023-07-08T09:23:03;5.53;;;3.33;;
71046;SDS011;58703;48.978;8.982;2023-07-08T09:25:51;6.13;;;3.83;;
71046;SDS011;58703;48.978;8.982;2023-07-08T09:28:42;4.87;;;3.20;;
71046;SDS011;58703;48.978;8.982;2023-07-08T09:31:31;4.65;;;3.00;;
71046;SDS011;58703;48.978;8.982;2023-07-08T09:34:08;5.43;;;3.00;;
71046;SDS011;58703;48.978;8.982;2023-07-08T09:36:38;4.18;;;2.92;;
71046;SDS011;58703;48.978;8.982;2023-07-08T09:39:15;6.13;;;3.45;;
71046;SDS011;58703;48.978;8.982;2023-07-08T09:41:44;7.13;;;3.23;;
71046;SDS011;58703;48.978;8.982;2023-07-08T09:44:21;5.85;;;3.45;;
71046;SDS011;58703;48.978;8.982;2023-07-08T09:46:52;6.07;;;3.67;;
71046;SDS011;58703;48.978;8.982;2023-07-08T09:49:23;6.32;;;3.30;;
71046;SDS011;58703;48.978;8.982;2023-07-08T09:51:50;6.40;;;3.63;;
71046;SDS011;58703;48.978;8.982;2023-07-08T09:54:17;4.77;;;3.40;;
71046;SDS011;58703;48.978;8.982;2023-07-08T09:56:50;4.88;;;3.47;;
71046;SDS011;58703;48.978;8.982;2023-07-08T09:59:21;7.97;;;3.53;;
71046;SDS011;58703;48.978;8.982;2023-07-08T10:01:50;5.53;;;3.30;;
71046;SDS011;58703;48.978;8.982;2023-07-08T10:04:18;8.15;;;3.08;;
71046;SDS011;58703;48.978;8.982;2023-07-08T10:06:46;6.53;;;3.47;;
71046;SDS011;58703;48.978;8.982;2023-07-08T10:09:19;6.03;;;3.30;;
71046;SDS011;58703;48.978;8.982;2023-07-08T10:11:51;5.05;;;3.35;;
71046;SDS011;58703;48.978;8.982;2023-07-08T10:14:29;5.85;;;3.22;;
71046;SDS011;58703;48.978;8.982;2023-07-08T10:16:58;5.90;;;3.42;;
71046;SDS011;58703;48.978;8.982;2023-07-08T10:19:24;7.67;;;3.80;;
71046;SDS011;58703;48.978;8.982;2023-07-08T10:27:15;4.50;;;3.23;;
71046;SDS011;58703;48.978;8.982;2023-07-08T10:29:51;5.22;;;3.65;;
71046;SDS011;58703;48.978;8.982;2023-07-08T10:35:34;5.85;;;3.92;;
71046;SDS011;58703;48.978;8.982;2023-07-08T10:38:18;5.32;;;3.55;;
71046;SDS011;58703;48.978;8.982;2023-07-08T10:41:09;5.47;;;3.63;;
71046;SDS011;58703;48.978;8.982;2023-07-08T10:49:52;6.25;;;3.72;;
71046;SDS011;58703;48.978;8.982;2023-07-08T10:52:31;6.57;;;4.25;;
71046;SDS011;58703;48.978;8.982;2023-07-08T11:00:57;6.28;;;4.20;;
71046;SDS011;58703;48.978;8.982;2023-07-08T11:06:29;6.03;;;3.85;;
71046;SDS011;58703;48.978;8.982;2023-07-08T11:09:07;7.57;;;3.80;;
71046;SDS011;58703;48.978;8.982;2023-07-08T11:12:22;5.03;;;3.65;;
71046;SDS011;58703;48.978;8.982;2023-07-08T11:14:37;5.03;;;3.53;;
71046;SDS011;58703;48.978;8.982;2023-07-08T11:20:31;4.68;;;3.20;;
71046;SDS011;58703;48.978;8.982;2023-07-08T11:23:22;4.23;;;3.47;;
71046;SDS011;58703;48.978;8.982;2023-07-08T11:26:00;7.88;;;3.38;;
71046;SDS011;58703;48.978;8.982;2023-07-08T11:28:36;5.00;;;3.72;;
71046;SDS011;58703;48.978;8.982;2023-07-08T11:31:02;5.50;;;3.40;;
71046;SDS011;58703;48.978;8.982;2023-07-08T11:33:31;7.40;;;3.88;;
71046;SDS011;58703;48.978;8.982;2023-07-08T11:35:58;4.80;;;3.70;;
71046;SDS011;58703;48.978;8.982;2023-07-08T11:38:26;4.63;;;3.60;;
71046;SDS011;58703;48.978;8.982;2023-07-08T11:41:01;6.33;;;3.10;;
71046;SDS011;58703;48.978;8.982;2023-07-08T11:43:42;5.38;;;3.85;;
71046;SDS011;58703;48.978;8.982;2023-07-08T11:46:13;4.75;;;3.15;;
71046;SDS011;58703;48.978;8.982;2023-07-08T11:48:51;5.15;;;3.55;;
71046;SDS011;58703;48.978;8.982;2023-07-08T11:51:19;4.43;;;2.88;;
71046;SDS011;58703;48.978;8.982;2023-07-08T11:53:50;4.30;;;2.45;;
71046;SDS011;58703;48.978;8.982;2023-07-08T11:56:27;4.90;;;2.00;;
71046;SDS011;58703;48.978;8.982;2023-07-08T11:59:03;5.30;;;2.77;;
71046;SDS011;58703;48.978;8.982;2023-07-08T12:04:27;6.05;;;3.08;;
71046;SDS011;58703;48.978;8.982;2023-07-08T12:09:56;5.35;;;2.92;;
71046;SDS011;58703;48.978;8.982;2023-07-08T12:12:31;3.93;;;2.30;;
71046;SDS011;58703;48.978;8.982;2023-07-08T12:15:04;3.75;;;2.20;;
71046;SDS011;58703;48.978;8.982;2023-07-08T12:17:39;3.50;;;2.25;;
71046;SDS011;58703;48.978;8.982;2023-07-08T12:20:19;3.58;;;2.20;;
71046;SDS011;58703;48.978;8.982;2023-07-08T12:22:50;4.05;;;2.10;;
71046;SDS011;58703;48.978;8.982;2023-07-08T12:25:17;4.33;;;2.60;;
71046;SDS011;58703;48.978;8.982;2023-07-08T12:27:46;7.65;;;3.30;;
71046;SDS011;58703;48.978;8.982;2023-07-08T12:30:12;8.57;;;2.87;;
71046;SDS011;58703;48.978;8.982;2023-07-08T12:32:39;5.90;;;2.85;;
71046;SDS011;58703;48.978;8.982;2023-07-08T12:35:14;5.30;;;3.08;;
71046;SDS011;58703;48.978;8.982;2023-07-08T12:37:48;5.38;;;2.92;;
71046;SDS011;58703;48.978;8.982;2023-07-08T12:40:14;6.53;;;3.07;;
71046;SDS011;58703;48.978;8.982;2023-07-08T12:42:39;5.47;;;2.88;;
71046;SDS011;58703;48.978;8.982;2023-07-08T12:45:12;6.87;;;3.03;;
71046;SDS011;58703;48.978;8.982;2023-07-08T12:47:45;5.70;;;2.70;;
71046;SDS011;58703;48.978;8.982;2023-07-08T12:50:12;6.60;;;2.60;;
71046;SDS011;58703;48.978;8.982;2023-07-08T12:52:39;4.43;;;2.72;;
71046;SDS011;58703;48.978;8.982;2023-07-08T12:55:08;6.70;;;3.20;;
71046;SDS011;58703;48.978;8.982;2023-07-08T12:57:36;4.18;;;3.00;;
71046;SDS011;58703;48.978;8.982;2023-07-08T13:00:03;7.37;;;2.90;;
71046;SDS011;58703;48.978;8.982;2023-07-08T13:02:30;7.57;;;2.92;;
71046;SDS011;58703;48.978;8.982;2023-07-08T13:04:59;4.95;;;2.78;;
71046;SDS011;58703;48.978;8.982;2023-07-08T13:07:38;4.50;;;2.50;;
71046;SDS011;58703;48.978;8.982;2023-07-08T13:10:13;5.18;;;2.90;;
71046;SDS011;58703;48.978;8.982;2023-07-08T13:12:44;4.83;;;2.90;;
71046;SDS011;58703;48.978;8.982;2023-07-08T13:15:21;3.75;;;3.08;;
71046;SDS011;58703;48.978;8.982;2023-07-08T13:17:50;5.07;;;3.00;;
71046;SDS011;58703;48.978;8.982;2023-07-08T13:20:17;5.15;;;3.50;;
71046;SDS011;58703;48.978;8.982;2023-07-08T13:22:49;6.25;;;3.45;;
71046;SDS011;58703;48.978;8.982;2023-07-08T13:25:19;8.10;;;3.90;;
71046;SDS011;58703;48.978;8.982;2023-07-08T13:27:57;6.35;;;3.42;;
71046;SDS011;58703;48.978;8.982;2023-07-08T13:30:28;6.22;;;3.40;;
71046;SDS011;58703;48.978;8.982;2023-07-08T13:32:57;5.45;;;3.05;;
71046;SDS011;58703;48.978;8.982;2023-07-08T13:35:27;5.45;;;3.63;;
71046;SDS011;58703;48.978;8.982;2023-07-08T13:38:01;3.83;;;3.30;;
71046;SDS011;58703;48.978;8.982;2023-07-08T13:40:31;4.00;;;3.00;;
71046;SDS011;58703;48.978;8.982;2023-07-08T13:42:57;3.67;;;2.95;;
71046;SDS011;58703;48.978;8.982;2023-07-08T13:45:30;4.00;;;2.85;;
71046;SDS011;58703;48.978;8.982;2023-07-08T13:48:01;4.77;;;3.23;;
71046;SDS011;58703;48.978;8.982;2023-07-08T13:50:40;3.85;;;2.90;;
71046;SDS011;58703;48.978;8.982;2023-07-08T13:53:22;5.28;;;2.92;;
71046;SDS011;58703;48.978;8.982;2023-07-08T13:56:03;4.60;;;3.05;;
71046;SDS011;58703;48.978;8.982;2023-07-08T13:58:33;4.47;;;3.40;;
71046;SDS011;58703;48.978;8.982;2023-07-08T14:00:58;3.88;;;2.85;;
71046;SDS011;58703;48.978;8.982;2023-07-08T14:03:24;5.67;;;2.93;;
71046;SDS011;58703;48.978;8.982;2023-07-08T14:05:51;4.20;;;3.17;;
71046;SDS011;58703;48.978;8.982;2023-07-08T14:08:18;5.57;;;3.35;;
71046;SDS011;58703;48.978;8.982;2023-07-08T14:10:45;3.60;;;2.53;;
71046;SDS011;58703;48.978;8.982;2023-07-08T14:13:10;4.38;;;3.22;;
71046;SDS011;58703;48.978;8.982;2023-07-08T14:15:37;3.45;;;2.85;;
71046;SDS011;58703;48.978;8.982;2023-07-08T14:18:04;5.75;;;3.45;;
71046;SDS011;58703;48.978;8.982;2023-07-08T14:20:30;4.18;;;3.35;;
71046;SDS011;58703;48.978;8.982;2023-07-08T14:22:56;5.50;;;2.73;;
71046;SDS011;58703;48.978;8.982;2023-07-08T14:25:21;3.67;;;2.92;;
71046;SDS011;58703;48.978;8.982;2023-07-08T14:27:50;3.40;;;2.75;;
71046;SDS011;58703;48.978;8.982;2023-07-08T14:30:16;5.05;;;3.20;;
71046;SDS011;58703;48.978;8.982;2023-07-08T14:32:41;4.05;;;2.70;;
71046;SDS011;58703;48.978;8.982;2023-07-08T14:35:11;8.57;;;3.20;;
71046;SDS011;58703;48.978;8.982;2023-07-08T14:37:38;4.78;;;3.20;;
71046;SDS011;58703;48.978;8.982;2023-07-08T14:43:06;5.03;;;3.23;;
71046;SDS011;58703;48.978;8.982;2023-07-08T14:45:39;4.85;;;3.30;;
71046;SDS011;58703;48.978;8.982;2023-07-08T14:48:09;3.55;;;2.80;;
71046;SDS011;58703;48.978;8.982;2023-07-08T14:50:36;5.53;;;3.03;;
71046;SDS011;58703;48.978;8.982;2023-07-08T14:53:02;4.03;;;2.88;;
71046;SDS011;58703;48.978;8.982;2023-07-08T14:55:28;4.17;;;2.80;;
71046;SDS011;58703;48.978;8.982;2023-07-08T14:57:55;4.93;;;3.10;;
71046;SDS011;58703;48.978;8.982;2023-07-08T15:00:22;5.13;;;3.10;;
71046;SDS011;58703;48.978;8.982;2023-07-08T15:02:48;4.22;;;3.35;;
71046;SDS011;58703;48.978;8.982;2023-07-08T15:05:17;3.90;;;3.53;;
71046;SDS011;58703;48.978;8.982;2023-07-08T15:07:49;4.53;;;2.83;;
71046;SDS011;58703;48.978;8.982;2023-07-08T15:10:21;3.92;;;2.80;;
71046;SDS011;58703;48.978;8.982;2023-07-08T15:12:53;4.38;;;3.00;;
71046;SDS011;58703;48.978;8.982;2023-07-08T15:15:32;4.55;;;3.42;;
71046;SDS011;58703;48.978;8.982;2023-07-08T15:18:01;4.60;;;3.33;;
71046;SDS011;58703;48.978;8.982;2023-07-08T15:20:31;8.98;;;2.80;;
71046;SDS011;58703;48.978;8.982;2023-07-08T15:22:58;3.30;;;2.80;;
71046;SDS011;58703;48.978;8.982;2023-07-08T15:25:25;4.65;;;2.92;;
71046;SDS011;58703;48.978;8.982;2023-07-08T15:27:52;5.78;;;3.17;;
71046;SDS011;58703;48.978;8.982;2023-07-08T15:30:24;5.75;;;2.75;;
71046;SDS011;58703;48.978;8.982;2023-07-08T15:32:53;5.65;;;2.70;;
71046;SDS011;58703;48.978;8.982;2023-07-08T15:35:26;3.50;;;3.10;;
71046;SDS011;58703;48.978;8.982;2023-07-08T15:37:59;3.92;;;3.42;;
71046;SDS011;58703;48.978;8.982;2023-07-08T15:40:31;3.33;;;3.00;;
71046;SDS011;58703;48.978;8.982;2023-07-08T15:42:59;6.70;;;3.33;;
71046;SDS011;58703;48.978;8.982;2023-07-08T15:45:34;4.72;;;3.30;;
71046;SDS011;58703;48.978;8.982;2023-07-08T15:48:04;5.55;;;3.22;;
71046;SDS011;58703;48.978;8.982;2023-07-08T15:50:31;4.43;;;2.80;;
71046;SDS011;58703;48.978;8.982;2023-07-08T15:52:58;5.68;;;3.15;;